Main page
METAR-TAF:

METAR-TAF

Airports :

Al Hoceima, Morocco

Cherif Al Idrissi Airport

latitude: 35-11N, longitude: 003-51W, elevation: 27 m

Current weather observation

The report was made 43 minutes ago, at 04:00 UTC
Wind 6 kt from the South/Southeast
Temperature 15°C
Humidity 88%
Pressure 1015 hPa
Visibility 10 km or more
Few clouds at a height of 9300 ft
Scattered clouds at a height of 11000 ft

METAR: GMTA 270400Z 16006KT 9999 FEW093 SCT110 15/13 Q1015 NOSIG

Time: 05:43 (04:43 UTC)

Forecast

The report was made 5 hours and 43 minutes ago, at 23:00 UTC
Forecast valid from 27 at 00 UTC to 28 at 06 UTC
Wind 4 kt from the South
Visibility: 7000 m
Few clouds at a height of 2000 ft
Scattered clouds at a height of 3000 ft

TAF: GMTA 262300Z 2700/2806 18004KT 7000 FEW020 SCT030

Weather observations and forecasts of more than 4000 airports (METAR and TAF reports).

The available stations are represented by yellow and red dots on the map.

Hover mouse over dot to see the name of the station.

Then click to see weather observations and forecasts.

To change the map : click on the green buttons with a black cross to zoom in, on the green button with a dash to zoom out, or on the green arrows for adjacent maps.


METAR-TAF: